createdAt,value
2022-10-05T00:02:49.222Z,2.05
2022-10-05T00:07:51.452Z,2.00
2022-10-05T00:12:52.816Z,2.38
2022-10-05T00:17:54.181Z,3.13
2022-10-05T00:23:00.672Z,3.00
2022-10-05T00:28:02.053Z,2.55
2022-10-05T00:33:03.450Z,2.47
2022-10-05T00:38:04.809Z,3.70
2022-10-05T00:43:18.856Z,1.88
2022-10-05T00:48:38.916Z,1.65
2022-10-05T00:53:54.272Z,1.77
2022-10-05T00:59:13.717Z,1.92
2022-10-05T01:04:30.068Z,2.42
2022-10-05T01:09:50.417Z,1.52
2022-10-05T01:15:02.329Z,1.95
2022-10-05T01:20:30.110Z,4.85
2022-10-05T01:25:59.998Z,1.90
2022-10-05T01:31:14.359Z,5.47
2022-10-05T01:36:28.573Z,2.30
2022-10-05T01:41:41.284Z,2.85
2022-10-05T01:47:09.836Z,2.78
2022-10-05T01:52:20.461Z,1.58
2022-10-05T01:57:43.417Z,3.72
2022-10-05T02:02:58.801Z,3.65
2022-10-05T02:08:01.456Z,2.85
2022-10-05T02:13:28.033Z,3.20
2022-10-05T02:18:33.966Z,3.35
2022-10-05T02:28:50.920Z,1.98
2022-10-05T02:33:52.276Z,1.95
2022-10-05T02:39:08.632Z,2.47
2022-10-05T02:44:12.841Z,2.97
2022-10-05T02:49:35.716Z,1.98
2022-10-05T02:54:51.147Z,5.47
2022-10-05T03:00:17.348Z,3.50
2022-10-05T03:05:31.864Z,6.53
2022-10-05T03:11:10.609Z,3.20
2022-10-05T03:16:30.104Z,2.17
2022-10-05T03:21:34.311Z,1.85
2022-10-05T03:26:45.022Z,2.40
2022-10-05T03:31:50.757Z,2.72
2022-10-05T03:37:15.228Z,3.72
2022-10-05T03:42:29.086Z,3.25
2022-10-05T03:47:41.897Z,2.35
2022-10-05T03:52:55.187Z,2.03
2022-10-05T03:57:58.204Z,1.85
2022-10-05T04:03:15.812Z,2.75
2022-10-05T04:08:43.068Z,2.10
2022-10-05T04:13:52.387Z,4.13
2022-10-05T04:19:12.914Z,2.00
2022-10-05T04:24:37.585Z,2.47
2022-10-05T04:29:47.789Z,2.25
2022-10-05T04:34:51.740Z,2.88
2022-10-05T04:40:17.733Z,6.55
2022-10-05T04:45:31.216Z,2.40
2022-10-05T04:50:49.838Z,2.20
2022-10-05T04:56:06.334Z,1.73
2022-10-05T05:01:32.450Z,1.75
2022-10-05T05:06:38.416Z,2.63
2022-10-05T05:16:42.197Z,2.88
2022-10-05T05:22:06.952Z,3.35
2022-10-05T05:27:29.897Z,2.30
2022-10-05T05:33:08.957Z,2.65
2022-10-05T05:38:35.205Z,3.20
2022-10-05T05:43:50.544Z,1.58
2022-10-05T05:48:52.196Z,1.58
2022-10-05T05:54:20.584Z,2.95
2022-10-05T05:59:32.587Z,4.07
2022-10-05T06:05:08.622Z,4.03
2022-10-05T06:10:29.718Z,2.28
2022-10-05T06:15:35.725Z,2.05
2022-10-05T06:20:40.388Z,8.15
2022-10-05T06:25:49.484Z,2.75
2022-10-05T06:31:01.790Z,3.60
2022-10-05T06:36:22.376Z,13.20
2022-10-05T06:41:54.045Z,5.53
2022-10-05T06:46:55.245Z,4.43
2022-10-05T06:52:01.378Z,7.30
2022-10-05T06:57:15.311Z,9.55
2022-10-05T07:02:55.677Z,4.78
2022-10-05T07:08:05.758Z,6.25
2022-10-05T07:13:25.673Z,4.28
2022-10-05T07:18:48.512Z,6.57
2022-10-05T07:24:12.408Z,8.30
2022-10-05T07:29:28.348Z,5.32
2022-10-05T07:34:39.761Z,8.48
2022-10-05T07:40:01.331Z,5.00
2022-10-05T07:45:29.089Z,3.90
2022-10-05T07:50:42.417Z,4.65
2022-10-05T07:55:46.937Z,3.55
2022-10-05T08:01:06.444Z,4.60
2022-10-05T08:06:10.774Z,3.17
2022-10-05T08:11:17.509Z,3.50
2022-10-05T08:16:19.140Z,5.57
2022-10-05T08:21:36.610Z,5.00
2022-10-05T08:26:48.965Z,8.63
2022-10-05T08:31:52.060Z,7.20
2022-10-05T08:37:07.584Z,5.97
2022-10-05T08:42:21.093Z,17.95
2022-10-05T08:47:43.866Z,20.88
2022-10-05T08:53:06.845Z,14.02
2022-10-05T08:58:44.869Z,13.63
2022-10-05T09:04:12.542Z,17.10
2022-10-05T09:09:25.256Z,10.48
2022-10-05T09:14:39.055Z,8.88
2022-10-05T09:19:53.136Z,4.40
2022-10-05T09:24:59.185Z,6.43
2022-10-05T09:30:24.313Z,4.15
2022-10-05T09:35:40.785Z,8.18
2022-10-05T09:41:32.560Z,7.22
2022-10-05T09:46:45.674Z,5.50
2022-10-05T09:51:54.343Z,4.13
2022-10-05T09:57:14.305Z,3.17
2022-10-05T10:02:48.422Z,3.15
2022-10-05T10:07:56.636Z,3.83
2022-10-05T10:13:35.529Z,2.70
2022-10-05T10:18:45.692Z,4.43
2022-10-05T10:24:00.185Z,3.67
2022-10-05T10:29:30.806Z,5.10
2022-10-05T10:35:00.492Z,6.28
2022-10-05T10:40:25.889Z,6.70
2022-10-05T10:45:33.228Z,3.72
2022-10-05T10:50:48.594Z,2.92
2022-10-05T10:56:17.815Z,6.05
2022-10-05T11:01:43.881Z,4.63
2022-10-05T11:07:03.893Z,4.28
2022-10-05T11:12:34.203Z,2.88
2022-10-05T11:17:58.584Z,5.13
2022-10-05T11:23:18.705Z,3.05
2022-10-05T11:28:53.225Z,3.20
2022-10-05T11:34:20.952Z,5.53
2022-10-05T11:39:37.972Z,3.60
2022-10-05T11:45:21.672Z,5.53
2022-10-05T11:50:38.310Z,5.55
2022-10-05T11:55:45.108Z,4.63
2022-10-05T12:00:50.028Z,7.10
2022-10-05T12:06:09.645Z,8.50
2022-10-05T12:11:34.900Z,5.50
2022-10-05T12:16:58.774Z,9.23
2022-10-05T12:22:15.224Z,4.30
2022-10-05T12:27:24.269Z,2.13
2022-10-05T12:32:26.792Z,5.25
2022-10-05T12:37:42.289Z,4.13
2022-10-05T12:42:50.186Z,7.43
2022-10-05T12:48:18.610Z,3.55
2022-10-05T12:53:48.181Z,4.00
2022-10-05T12:59:11.645Z,3.63
2022-10-05T13:04:56.813Z,3.10
2022-10-05T13:10:19.817Z,12.90
2022-10-05T13:15:48.020Z,4.97
2022-10-05T13:20:59.510Z,2.85
2022-10-05T13:26:07.769Z,3.63
2022-10-05T13:31:13.358Z,3.13
2022-10-05T13:36:17.177Z,3.40
2022-10-05T13:41:40.628Z,3.70
2022-10-05T13:46:48.630Z,3.17
2022-10-05T13:52:08.657Z,1.80
2022-10-05T13:57:45.048Z,1.83
2022-10-05T14:02:49.786Z,4.65
2022-10-05T14:08:03.882Z,6.00
2022-10-05T14:13:26.418Z,6.90
2022-10-05T14:18:29.565Z,6.22
2022-10-05T14:23:30.984Z,2.92
2022-10-05T14:28:34.046Z,2.72
2022-10-05T14:33:35.675Z,8.10
2022-10-05T14:38:57.626Z,2.63
2022-10-05T14:44:24.363Z,3.88
2022-10-05T14:49:37.201Z,5.15
2022-10-05T14:54:49.056Z,2.22
2022-10-05T15:00:24.066Z,2.55
2022-10-05T15:05:32.492Z,2.35
2022-10-05T15:10:52.672Z,2.08
2022-10-05T15:16:19.177Z,2.75
2022-10-05T15:21:43.125Z,2.85
2022-10-05T15:26:50.422Z,2.10
2022-10-05T15:31:59.912Z,1.63
2022-10-05T15:37:11.669Z,2.55
2022-10-05T15:42:22.556Z,2.38
2022-10-05T15:47:43.942Z,2.17
2022-10-05T15:53:14.621Z,1.85
2022-10-05T15:58:51.628Z,2.67
2022-10-05T16:04:05.734Z,2.35
2022-10-05T16:09:35.367Z,2.08
2022-10-05T16:14:42.972Z,2.65
2022-10-05T16:19:56.789Z,3.40
2022-10-05T16:25:13.712Z,1.67
2022-10-05T16:30:22.467Z,2.53
2022-10-05T16:35:39.172Z,3.25
2022-10-05T16:40:57.272Z,2.20
2022-10-05T16:46:14.950Z,2.63
2022-10-05T16:51:45.021Z,3.25
2022-10-05T16:57:38.713Z,1.83
2022-10-05T17:03:21.069Z,3.72
2022-10-05T17:08:30.196Z,2.45
2022-10-05T17:13:57.373Z,2.80
2022-10-05T17:19:15.071Z,3.13
2022-10-05T17:24:41.540Z,3.00
2022-10-05T17:29:51.676Z,3.13
2022-10-05T17:34:58.993Z,3.83
2022-10-05T17:40:02.316Z,2.83
2022-10-05T17:45:11.804Z,4.22
2022-10-05T17:50:32.076Z,2.97
2022-10-05T17:55:33.962Z,2.88
2022-10-05T18:00:40.561Z,4.35
2022-10-05T18:05:41.940Z,3.42
2022-10-05T18:11:24.989Z,3.45
2022-10-05T18:17:04.051Z,3.10
2022-10-05T18:22:17.161Z,2.67
2022-10-05T18:27:37.041Z,3.00
2022-10-05T18:32:45.228Z,3.90
2022-10-05T18:37:52.712Z,4.13
2022-10-05T18:42:57.011Z,3.50
2022-10-05T18:48:24.022Z,4.00
2022-10-05T18:53:53.881Z,5.97
2022-10-05T18:59:32.062Z,6.30
2022-10-05T19:04:54.481Z,4.00
2022-10-05T19:10:28.752Z,2.85
2022-10-05T19:15:50.211Z,4.57
2022-10-05T19:21:26.980Z,3.42
2022-10-05T19:26:51.630Z,3.05
2022-10-05T19:32:08.696Z,4.35
2022-10-05T19:37:26.161Z,2.85
2022-10-05T19:43:01.225Z,2.95
2022-10-05T19:48:27.515Z,3.70
2022-10-05T19:53:39.673Z,4.75
2022-10-05T19:58:41.031Z,2.65
2022-10-05T20:03:42.929Z,4.75
2022-10-05T20:08:46.368Z,3.55
2022-10-05T20:13:53.333Z,3.95
2022-10-05T20:19:13.348Z,3.30
2022-10-05T20:24:21.061Z,3.45
2022-10-05T20:29:22.440Z,3.65
2022-10-05T20:34:23.901Z,4.25
2022-10-05T20:39:25.260Z,2.78
2022-10-05T20:44:26.884Z,3.33
2022-10-05T20:49:30.830Z,4.30
2022-10-05T20:54:32.243Z,3.65
2022-10-05T20:59:33.986Z,3.13
2022-10-05T21:04:40.992Z,3.33
2022-10-05T21:09:43.710Z,3.53
2022-10-05T21:14:45.596Z,6.70
2022-10-05T21:19:47.130Z,2.80
2022-10-05T21:24:48.493Z,4.30
2022-10-05T21:29:49.908Z,4.20
2022-10-05T21:34:51.278Z,2.67
2022-10-05T21:39:52.649Z,2.88
2022-10-05T21:44:54.044Z,3.63
2022-10-05T21:49:55.412Z,3.38
2022-10-05T21:54:56.768Z,3.40
2022-10-05T21:59:59.328Z,3.60
2022-10-05T22:05:00.968Z,3.33
2022-10-05T22:10:02.635Z,2.80
2022-10-05T22:15:06.154Z,2.13
2022-10-05T22:20:10.389Z,3.35
2022-10-05T22:25:11.753Z,2.35
2022-10-05T22:30:14.764Z,2.97
2022-10-05T22:35:16.128Z,3.13
2022-10-05T22:40:17.509Z,3.53
2022-10-05T22:45:18.896Z,1.67
2022-10-05T22:50:20.446Z,2.85
2022-10-05T22:55:21.804Z,1.85
2022-10-05T23:00:35.221Z,1.90
2022-10-05T23:05:44.509Z,2.08
2022-10-05T23:10:45.863Z,2.65
2022-10-05T23:15:47.040Z,2.40
2022-10-05T23:20:55.112Z,2.00
2022-10-05T23:26:00.050Z,1.52
2022-10-05T23:31:02.953Z,1.80
2022-10-05T23:36:08.328Z,1.48
2022-10-05T23:41:09.797Z,2.47
2022-10-05T23:46:11.288Z,1.60
2022-10-05T23:51:13.091Z,2.95
2022-10-05T23:56:14.476Z,1.52
